Time;durP1;ratioP1;P1;durP2;ratioP2;P2;SDS_P1;SDS_P2;PMS_P1;PMS_P2;Temp;Humidity;BMP_temperature;BMP_pressure;BME280_temperature;BME280_humidity;BME280_pressure;Samples;Min_cycle;Max_cycle;Signal;HPM_P1;HPM_P2
2022/07/16 00:03:02;;;;;;;;;;;17.40;64.40;;;;;;5017149;28;19932;-84
2022/07/16 00:05:28;;;;;;;;;;;17.30;64.20;;;;;;5015272;28;19909;-85
2022/07/16 00:07:54;;;;;;;;;;;17.40;64.20;;;;;;5015519;28;19917;-83
2022/07/16 00:10:20;;;;;;;;;;;17.40;64.40;;;;;;5014533;28;20005;-84
2022/07/16 00:12:46;;;;;;;;;;;17.30;64.70;;;;;;5015922;28;19924;-84
2022/07/16 00:15:11;;;;;;;;;;;17.30;65.30;;;;;;5014140;28;19917;-84
2022/07/16 00:17:37;;;;;;;;;;;17.30;65.50;;;;;;5017401;28;19914;-84
2022/07/16 00:20:03;;;;;;;;;;;17.40;64.80;;;;;;5020968;28;19963;-84
2022/07/16 00:22:29;;;;;;;;;;;17.30;65.60;;;;;;5023845;28;19921;-85
2022/07/16 00:24:54;;;;;;;;;;;17.20;65.90;;;;;;5017733;28;19909;-84
2022/07/16 00:27:20;;;;;;;;;;;17.10;65.70;;;;;;5014114;28;19920;-85
2022/07/16 00:29:46;;;;;;;;;;;17.20;65.70;;;;;;5024274;28;19914;-83
2022/07/16 00:32:11;;;;;;;;;;;17.10;65.60;;;;;;5034686;28;19926;-85
2022/07/16 00:34:37;;;;;;;;;;;17.10;65.60;;;;;;5034756;28;19928;-84
2022/07/16 00:37:02;;;;;;;;;;;17.20;66.00;;;;;;5027979;28;19928;-85
2022/07/16 00:39:28;;;;;;;;;;;17.20;65.90;;;;;;5024622;28;19960;-83
2022/07/16 00:41:53;;;;;;;;;;;17.30;65.50;;;;;;5016698;28;19981;-86
2022/07/16 00:44:19;;;;;;;;;;;17.30;65.80;;;;;;5005076;28;19913;-82
2022/07/16 00:46:45;;;;;;;;;;;17.30;65.70;;;;;;5004520;28;19913;-83
2022/07/16 00:49:11;;;;;;;;;;;17.30;65.40;;;;;;5008237;28;19940;-83
2022/07/16 00:51:40;;;;;;;;;;;17.30;65.40;;;;;;5024172;28;19921;-83
2022/07/16 00:54:06;;;;;;;;;;;17.30;65.10;;;;;;5024536;28;19920;-84
2022/07/16 00:56:31;;;;;;;;;;;17.40;65.50;;;;;;5021792;28;19913;-84
2022/07/16 00:58:57;;;;;;;;;;;17.50;65.40;;;;;;5022260;28;19917;-83
2022/07/16 01:01:23;;;;;;;;;;;17.50;64.90;;;;;;5024113;28;19928;-83
2022/07/16 01:03:48;;;;;;;;;;;17.50;64.80;;;;;;5022409;28;20251;-84
2022/07/16 01:06:14;;;;;;;;;;;17.50;64.80;;;;;;5023499;28;20019;-81
2022/07/16 01:08:41;;;;;;;;;;;17.40;64.90;;;;;;5022498;28;19917;-83
2022/07/16 01:11:08;;;;;;;;;;;17.40;65.00;;;;;;5022021;28;19959;-82
2022/07/16 01:13:38;;;;;;;;;;;17.50;64.90;;;;;;5022449;28;19940;-83
2022/07/16 01:16:03;;;;;;;;;;;17.40;65.40;;;;;;5013896;28;19910;-83
2022/07/16 01:18:30;;;;;;;;;;;17.50;64.90;;;;;;5002491;28;19925;-84
2022/07/16 01:20:55;;;;;;;;;;;17.50;64.80;;;;;;5013350;28;19920;-84
2022/07/16 01:23:22;;;;;;;;;;;17.50;65.20;;;;;;5022260;28;20297;-84
2022/07/16 01:25:48;;;;;;;;;;;17.50;64.90;;;;;;5021037;28;19909;-84
2022/07/16 01:28:13;;;;;;;;;;;17.50;64.80;;;;;;5023013;28;19973;-82
2022/07/16 01:30:39;;;;;;;;;;;17.60;64.70;;;;;;5020882;28;19910;-84
2022/07/16 01:33:23;;;;;;;;;;;17.50;65.00;;;;;;5023288;28;19920;-84
2022/07/16 01:35:56;;;;;;;;;;;17.50;65.10;;;;;;5023428;28;19909;-83
2022/07/16 01:38:22;;;;;;;;;;;17.50;65.20;;;;;;5022190;28;19914;-83
2022/07/16 01:40:47;;;;;;;;;;;17.50;65.20;;;;;;5022989;28;19924;-84
2022/07/16 01:43:16;;;;;;;;;;;17.50;65.20;;;;;;5023081;28;19916;-83
2022/07/16 01:45:42;;;;;;;;;;;17.40;65.30;;;;;;5015563;28;20510;-84
2022/07/16 01:48:08;;;;;;;;;;;17.30;65.70;;;;;;5015045;28;19976;-82
2022/07/16 01:50:33;;;;;;;;;;;17.30;65.50;;;;;;5010842;28;19913;-83
2022/07/16 01:52:59;;;;;;;;;;;17.30;65.20;;;;;;5001300;28;19916;-84
2022/07/16 01:55:24;;;;;;;;;;;17.30;65.10;;;;;;5017146;28;19940;-84
2022/07/16 01:57:50;;;;;;;;;;;17.30;65.40;;;;;;5018247;28;19925;-84
2022/07/16 02:00:15;;;;;;;;;;;17.30;65.50;;;;;;5012921;28;19910;-85
2022/07/16 02:02:41;;;;;;;;;;;17.30;66.00;;;;;;5014553;28;19921;-82
2022/07/16 02:05:07;;;;;;;;;;;17.30;66.40;;;;;;5015234;28;19964;-83
2022/07/16 02:07:32;;;;;;;;;;;17.30;66.60;;;;;;5014158;28;19959;-82
2022/07/16 02:09:57;;;;;;;;;;;17.30;66.10;;;;;;5016743;28;19916;-84
2022/07/16 02:12:23;;;;;;;;;;;17.30;66.20;;;;;;5015296;28;19909;-83
2022/07/16 02:14:48;;;;;;;;;;;17.30;65.90;;;;;;5012439;28;19913;-83
2022/07/16 02:17:14;;;;;;;;;;;17.40;65.40;;;;;;5014544;28;19917;-84
2022/07/16 02:19:39;;;;;;;;;;;17.40;65.20;;;;;;5016904;28;19913;-83
2022/07/16 02:22:06;;;;;;;;;;;17.50;65.20;;;;;;5020271;28;20367;-84
2022/07/16 02:24:32;;;;;;;;;;;17.40;65.10;;;;;;5022381;28;19976;-83
2022/07/16 02:26:57;;;;;;;;;;;17.50;65.10;;;;;;5021965;28;19913;-83
2022/07/16 02:29:23;;;;;;;;;;;17.50;65.00;;;;;;5018906;28;19914;-83
2022/07/16 02:31:48;;;;;;;;;;;17.50;65.10;;;;;;5021130;28;19941;-82
2022/07/16 02:34:14;;;;;;;;;;;17.50;65.00;;;;;;5018936;28;19917;-83
2022/07/16 02:36:39;;;;;;;;;;;17.40;65.00;;;;;;5018144;28;19959;-84
2022/07/16 02:39:05;;;;;;;;;;;17.50;64.80;;;;;;5017219;28;19910;-83
2022/07/16 02:41:31;;;;;;;;;;;17.40;64.90;;;;;;4999479;28;19921;-84
2022/07/16 02:43:56;;;;;;;;;;;17.40;65.00;;;;;;5000423;28;19990;-84
2022/07/16 02:46:21;;;;;;;;;;;17.40;65.00;;;;;;4997619;28;19917;-83
2022/07/16 02:48:49;;;;;;;;;;;17.40;65.10;;;;;;4997205;28;19914;-83
2022/07/16 02:51:15;;;;;;;;;;;17.40;65.10;;;;;;4994989;28;19910;-84
2022/07/16 02:53:40;;;;;;;;;;;17.40;65.10;;;;;;4995825;28;20081;-83
2022/07/16 02:56:06;;;;;;;;;;;17.40;65.20;;;;;;5014276;28;19910;-83
2022/07/16 02:58:32;;;;;;;;;;;17.40;65.20;;;;;;5013233;28;20366;-84
2022/07/16 03:00:57;;;;;;;;;;;17.50;65.10;;;;;;5014641;28;19910;-83
2022/07/16 03:03:23;;;;;;;;;;;17.50;64.70;;;;;;5013511;28;19916;-83
2022/07/16 03:05:48;;;;;;;;;;;17.50;64.50;;;;;;5014798;28;20347;-83
2022/07/16 03:08:14;;;;;;;;;;;17.50;64.60;;;;;;5014345;28;19992;-83
2022/07/16 03:10:39;;;;;;;;;;;17.50;64.30;;;;;;5015929;28;20563;-84
2022/07/16 03:13:05;;;;;;;;;;;17.50;64.40;;;;;;5024132;28;19917;-84
2022/07/16 03:15:30;;;;;;;;;;;17.50;64.40;;;;;;5021503;28;19924;-84
2022/07/16 03:17:56;;;;;;;;;;;17.50;64.20;;;;;;5018037;28;19918;-84
2022/07/16 03:20:21;;;;;;;;;;;17.50;64.20;;;;;;5043330;28;20377;-84
2022/07/16 03:22:47;;;;;;;;;;;17.50;64.10;;;;;;5038062;28;19914;-84
2022/07/16 03:25:13;;;;;;;;;;;17.60;63.80;;;;;;5034503;28;19909;-83
2022/07/16 03:27:39;;;;;;;;;;;17.60;63.80;;;;;;5033552;28;19962;-84
2022/07/16 03:30:05;;;;;;;;;;;17.60;63.80;;;;;;5018577;28;20409;-83
2022/07/16 03:32:30;;;;;;;;;;;17.60;63.70;;;;;;5019426;28;19959;-84
2022/07/16 03:34:56;;;;;;;;;;;17.60;63.90;;;;;;5020377;28;19909;-83
2022/07/16 03:37:21;;;;;;;;;;;17.60;63.80;;;;;;5030933;28;19901;-83
2022/07/16 03:39:47;;;;;;;;;;;17.60;63.80;;;;;;5051881;28;19901;-84
2022/07/16 03:42:12;;;;;;;;;;;17.70;63.50;;;;;;5035016;28;19914;-84
2022/07/16 03:44:37;;;;;;;;;;;17.60;63.30;;;;;;5030177;28;19924;-84
2022/07/16 03:47:03;;;;;;;;;;;17.60;63.30;;;;;;5028040;28;19906;-83
2022/07/16 03:49:28;;;;;;;;;;;17.60;63.30;;;;;;5026862;28;20054;-84
2022/07/16 03:51:54;;;;;;;;;;;17.60;63.20;;;;;;5016361;28;19941;-84
2022/07/16 03:54:19;;;;;;;;;;;17.60;63.20;;;;;;5026652;28;20317;-83
2022/07/16 03:56:45;;;;;;;;;;;17.60;63.30;;;;;;5025696;28;19910;-83
2022/07/16 03:59:10;;;;;;;;;;;17.60;63.10;;;;;;5040330;28;19917;-83
2022/07/16 04:01:36;;;;;;;;;;;17.60;63.10;;;;;;5024437;28;19913;-83
2022/07/16 04:04:02;;;;;;;;;;;17.60;62.60;;;;;;5024664;28;19937;-83
2022/07/16 04:06:27;;;;;;;;;;;17.60;62.80;;;;;;5027067;28;19967;-83
2022/07/16 04:08:53;;;;;;;;;;;17.60;62.50;;;;;;5007412;28;19952;-83
2022/07/16 04:11:18;;;;;;;;;;;17.60;62.50;;;;;;5001363;28;19917;-84
2022/07/16 04:13:44;;;;;;;;;;;17.60;62.40;;;;;;5001152;28;20008;-83
2022/07/16 04:16:09;;;;;;;;;;;17.60;62.60;;;;;;5002561;28;19910;-83
2022/07/16 04:18:36;;;;;;;;;;;17.60;62.40;;;;;;4997882;28;19972;-83
2022/07/16 04:21:02;;;;;;;;;;;17.60;62.60;;;;;;5017038;28;19934;-83
2022/07/16 04:23:28;;;;;;;;;;;17.50;63.30;;;;;;5017768;28;19910;-83
2022/07/16 04:25:53;;;;;;;;;;;17.50;63.10;;;;;;5020837;28;20462;-83
2022/07/16 04:28:19;;;;;;;;;;;17.60;63.10;;;;;;5021294;28;20319;-83
2022/07/16 04:30:44;;;;;;;;;;;17.60;63.20;;;;;;5019927;28;19996;-83
2022/07/16 04:33:10;;;;;;;;;;;17.60;63.00;;;;;;5019769;28;19964;-84
2022/07/16 04:35:36;;;;;;;;;;;17.60;63.10;;;;;;5021537;28;19986;-83
2022/07/16 04:38:01;;;;;;;;;;;17.60;63.20;;;;;;5020751;28;19918;-84
2022/07/16 04:40:27;;;;;;;;;;;17.60;62.90;;;;;;5009899;28;19910;-83
2022/07/16 04:42:52;;;;;;;;;;;17.60;62.90;;;;;;5003464;28;19910;-84
2022/07/16 04:45:18;;;;;;;;;;;17.60;62.90;;;;;;5004782;28;19910;-83
2022/07/16 04:47:43;;;;;;;;;;;17.60;63.00;;;;;;5003696;28;19913;-83
2022/07/16 04:50:09;;;;;;;;;;;17.70;63.20;;;;;;5017923;28;19921;-84
2022/07/16 04:52:34;;;;;;;;;;;17.60;63.10;;;;;;5022339;28;20440;-84
2022/07/16 04:55:00;;;;;;;;;;;17.60;63.30;;;;;;5024501;28;19909;-84
2022/07/16 04:57:26;;;;;;;;;;;17.60;63.20;;;;;;5024783;28;19959;-85
2022/07/16 04:59:51;;;;;;;;;;;17.70;63.30;;;;;;5021076;28;19910;-83
2022/07/16 05:05:02;;;;;;;;;;;17.80;63.10;;;;;;5019452;28;19920;-84
2022/07/16 05:07:27;;;;;;;;;;;17.90;63.30;;;;;;5018334;28;20050;-83
2022/07/16 05:09:53;;;;;;;;;;;18.00;63.10;;;;;;5017131;28;19909;-83
2022/07/16 05:12:18;;;;;;;;;;;18.00;62.90;;;;;;5016822;28;19981;-83
2022/07/16 05:14:44;;;;;;;;;;;18.10;63.00;;;;;;5023731;28;19944;-83
2022/07/16 05:17:09;;;;;;;;;;;18.10;62.90;;;;;;5013427;28;19914;-83
2022/07/16 05:19:35;;;;;;;;;;;18.10;62.70;;;;;;5011658;28;19979;-84
2022/07/16 05:22:00;;;;;;;;;;;18.20;62.40;;;;;;5012007;28;19919;-83
2022/07/16 05:24:26;;;;;;;;;;;18.30;62.00;;;;;;5011921;28;19910;-84
2022/07/16 05:26:51;;;;;;;;;;;18.40;62.10;;;;;;5019828;28;19920;-83
2022/07/16 05:29:17;;;;;;;;;;;18.40;62.00;;;;;;5017819;28;20385;-83
2022/07/16 05:31:42;;;;;;;;;;;18.30;62.10;;;;;;5005511;28;19910;-84
2022/07/16 05:34:07;;;;;;;;;;;18.30;62.20;;;;;;4998875;28;19920;-84
2022/07/16 05:36:33;;;;;;;;;;;18.50;62.40;;;;;;4998746;28;19913;-83
2022/07/16 05:38:58;;;;;;;;;;;18.50;62.50;;;;;;4998883;28;19909;-83
2022/07/16 05:41:24;;;;;;;;;;;18.60;62.00;;;;;;4997491;28;19909;-84
2022/07/16 05:43:49;;;;;;;;;;;18.60;62.30;;;;;;4996985;28;19921;-84
2022/07/16 05:46:15;;;;;;;;;;;18.70;62.00;;;;;;4997044;28;20287;-83
2022/07/16 05:48:40;;;;;;;;;;;18.80;61.90;;;;;;4997405;28;19953;-83
2022/07/16 05:51:06;;;;;;;;;;;18.60;62.40;;;;;;5007899;28;19949;-83
2022/07/16 05:53:31;;;;;;;;;;;18.60;63.10;;;;;;5024943;28;19917;-83
2022/07/16 05:55:57;;;;;;;;;;;18.60;63.40;;;;;;5027466;28;19914;-82
2022/07/16 05:58:22;;;;;;;;;;;18.80;64.20;;;;;;5025800;28;19917;-84
2022/07/16 06:00:48;;;;;;;;;;;18.60;64.70;;;;;;5023199;28;19921;-84
2022/07/16 06:03:13;;;;;;;;;;;18.50;65.60;;;;;;5017597;28;19916;-84
2022/07/16 06:05:39;;;;;;;;;;;18.60;65.80;;;;;;5023681;28;19913;-83
2022/07/16 06:08:04;;;;;;;;;;;18.60;66.20;;;;;;5014860;28;19917;-83
2022/07/16 06:10:30;;;;;;;;;;;18.60;66.20;;;;;;5006098;28;20499;-84
2022/07/16 06:12:56;;;;;;;;;;;18.60;66.30;;;;;;5002160;28;19921;-84
2022/07/16 06:15:22;;;;;;;;;;;18.60;66.40;;;;;;5000538;28;19910;-84
2022/07/16 06:17:47;;;;;;;;;;;18.50;66.60;;;;;;5002237;28;19920;-83
2022/07/16 06:20:13;;;;;;;;;;;18.50;66.90;;;;;;5016324;28;20325;-84
2022/07/16 06:22:39;;;;;;;;;;;18.70;66.20;;;;;;5016963;28;19913;-84
2022/07/16 06:25:04;;;;;;;;;;;18.80;66.20;;;;;;5002107;28;19910;-84
2022/07/16 06:27:30;;;;;;;;;;;18.80;66.60;;;;;;5000852;28;20033;-85
2022/07/16 06:29:56;;;;;;;;;;;18.90;65.90;;;;;;5015181;28;19909;-84
2022/07/16 06:32:21;;;;;;;;;;;18.90;66.00;;;;;;5023730;28;19913;-84
2022/07/16 06:34:47;;;;;;;;;;;18.90;65.80;;;;;;5021263;28;19993;-84
2022/07/16 06:37:12;;;;;;;;;;;18.80;65.90;;;;;;5025566;28;19913;-83
2022/07/16 06:39:40;;;;;;;;;;;18.80;65.70;;;;;;5021820;28;19956;-85
2022/07/16 06:42:06;;;;;;;;;;;18.80;66.00;;;;;;5018805;28;19909;-84
2022/07/16 06:44:32;;;;;;;;;;;18.60;66.50;;;;;;5020300;28;19909;-84
2022/07/16 06:46:57;;;;;;;;;;;18.70;65.80;;;;;;5018477;28;19997;-84
2022/07/16 06:49:23;;;;;;;;;;;18.60;66.30;;;;;;5018337;28;19910;-84
2022/07/16 06:51:48;;;;;;;;;;;18.90;65.80;;;;;;5018915;28;19917;-85
2022/07/16 06:54:14;;;;;;;;;;;19.00;65.30;;;;;;5017840;28;20273;-84
2022/07/16 06:56:39;;;;;;;;;;;19.00;65.10;;;;;;5016856;28;19971;-84
2022/07/16 06:59:05;;;;;;;;;;;19.00;64.90;;;;;;5006260;28;19917;-84
2022/07/16 07:01:30;;;;;;;;;;;18.90;65.70;;;;;;5019925;28;19921;-84
2022/07/16 07:03:56;;;;;;;;;;;19.00;65.90;;;;;;5019549;28;19917;-84
2022/07/16 07:06:21;;;;;;;;;;;18.90;65.50;;;;;;5023830;28;19914;-83
2022/07/16 07:08:47;;;;;;;;;;;19.00;64.30;;;;;;5023594;28;20281;-84
2022/07/16 07:11:12;;;;;;;;;;;19.00;64.60;;;;;;5023439;28;19910;-84
2022/07/16 07:13:38;;;;;;;;;;;18.90;65.20;;;;;;5022623;28;19918;-84
2022/07/16 07:16:04;;;;;;;;;;;19.00;64.80;;;;;;5021747;28;19909;-85
2022/07/16 07:18:30;;;;;;;;;;;19.10;64.70;;;;;;5019821;28;20297;-84
2022/07/16 07:20:56;;;;;;;;;;;19.20;62.40;;;;;;5037444;28;19909;-83
2022/07/16 07:23:22;;;;;;;;;;;19.10;62.00;;;;;;5015498;28;19924;-84
2022/07/16 07:25:47;;;;;;;;;;;19.30;58.80;;;;;;5024835;28;19916;-83
2022/07/16 07:28:13;;;;;;;;;;;19.40;59.30;;;;;;5021560;28;19914;-83
2022/07/16 07:30:38;;;;;;;;;;;19.30;59.30;;;;;;5025333;28;20231;-83
2022/07/16 07:33:04;;;;;;;;;;;19.40;59.30;;;;;;5033152;28;19909;-83
2022/07/16 07:35:29;;;;;;;;;;;19.10;58.80;;;;;;5056133;28;19914;-83
2022/07/16 07:37:55;;;;;;;;;;;18.90;60.10;;;;;;5043397;28;19917;-83
2022/07/16 07:40:20;;;;;;;;;;;18.90;60.20;;;;;;5034383;28;19944;-80
2022/07/16 07:42:46;;;;;;;;;;;18.90;61.40;;;;;;5020799;28;19957;-81
2022/07/16 07:45:11;;;;;;;;;;;19.00;61.50;;;;;;5032448;28;19928;-80
2022/07/16 07:47:37;;;;;;;;;;;19.00;61.10;;;;;;5025858;28;20008;-78
2022/07/16 07:50:04;;;;;;;;;;;19.10;60.50;;;;;;5006785;28;19967;-80
2022/07/16 07:52:29;;;;;;;;;;;19.10;60.30;;;;;;5001969;28;20286;-79
2022/07/16 07:54:55;;;;;;;;;;;19.10;60.00;;;;;;5020202;28;19936;-80
2022/07/16 07:57:20;;;;;;;;;;;19.30;58.00;;;;;;4994999;28;19949;-79
2022/07/16 07:59:45;;;;;;;;;;;19.20;57.90;;;;;;5000264;28;19924;-79
2022/07/16 08:02:11;;;;;;;;;;;19.30;57.80;;;;;;5008664;28;19976;-81
2022/07/16 08:04:39;;;;;;;;;;;19.30;57.70;;;;;;5006502;28;20361;-78
2022/07/16 08:07:05;;;;;;;;;;;19.40;57.30;;;;;;5023573;28;20258;-79
2022/07/16 08:09:30;;;;;;;;;;;19.30;58.10;;;;;;5017350;28;19913;-79
2022/07/16 08:11:56;;;;;;;;;;;19.30;57.40;;;;;;5016852;28;20401;-80
2022/07/16 08:14:21;;;;;;;;;;;19.00;58.80;;;;;;5002783;28;20009;-79
2022/07/16 08:16:47;;;;;;;;;;;19.10;58.50;;;;;;4995966;28;19917;-79
2022/07/16 08:19:12;;;;;;;;;;;19.30;58.90;;;;;;5010687;28;19914;-79
2022/07/16 08:21:38;;;;;;;;;;;19.40;59.10;;;;;;5000633;28;20398;-80
2022/07/16 08:26:47;;;;;;;;;;;19.40;58.10;;;;;;5004151;28;19929;-79
2022/07/16 08:29:13;;;;;;;;;;;19.60;57.20;;;;;;5002000;28;19913;-81
2022/07/16 08:31:38;;;;;;;;;;;19.80;56.00;;;;;;5001650;28;20000;-80
2022/07/16 08:34:04;;;;;;;;;;;19.80;55.40;;;;;;5005701;28;19913;-80
2022/07/16 08:36:29;;;;;;;;;;;19.70;55.80;;;;;;4994160;28;19914;-81
2022/07/16 08:38:55;;;;;;;;;;;19.60;56.30;;;;;;5008509;28;19922;-79
2022/07/16 08:41:21;;;;;;;;;;;19.60;55.90;;;;;;4998715;28;20448;-84
2022/07/16 08:43:46;;;;;;;;;;;19.60;55.30;;;;;;5005722;28;19910;-78
2022/07/16 08:46:13;;;;;;;;;;;19.60;55.70;;;;;;5002598;28;19914;-80
2022/07/16 08:48:38;;;;;;;;;;;19.60;54.70;;;;;;5015204;28;20397;-79
2022/07/16 08:51:06;;;;;;;;;;;19.70;54.60;;;;;;5033533;28;20008;-79
2022/07/16 08:53:32;;;;;;;;;;;19.90;54.40;;;;;;5001459;28;19945;-79
2022/07/16 08:55:59;;;;;;;;;;;20.10;54.00;;;;;;5001742;28;19914;-80
2022/07/16 08:58:25;;;;;;;;;;;20.10;54.00;;;;;;4998315;28;19968;-78
2022/07/16 09:00:51;;;;;;;;;;;20.30;53.70;;;;;;5001661;28;20431;-78
2022/07/16 09:03:16;;;;;;;;;;;20.20;54.50;;;;;;5010424;28;19941;-78
2022/07/16 09:05:42;;;;;;;;;;;20.30;51.70;;;;;;5015723;28;19918;-79
2022/07/16 09:08:07;;;;;;;;;;;20.40;51.80;;;;;;5006826;28;19969;-79
2022/07/16 09:10:34;;;;;;;;;;;20.30;51.30;;;;;;5005791;28;19914;-78
2022/07/16 09:13:00;;;;;;;;;;;20.30;51.00;;;;;;5011971;28;19936;-77
2022/07/16 09:15:30;;;;;;;;;;;20.50;50.30;;;;;;5003806;28;20374;-78
2022/07/16 09:18:14;;;;;;;;;;;20.50;51.00;;;;;;5006233;28;19918;-78
2022/07/16 09:20:41;;;;;;;;;;;20.50;52.00;;;;;;4997870;28;19920;-78
2022/07/16 09:23:17;;;;;;;;;;;20.50;52.00;;;;;;5012854;28;19914;-78
2022/07/16 09:25:47;;;;;;;;;;;20.50;51.30;;;;;;5002785;28;19917;-77
2022/07/16 09:28:12;;;;;;;;;;;20.50;51.50;;;;;;5006780;28;19913;-78
2022/07/16 09:30:38;;;;;;;;;;;20.40;50.60;;;;;;5006341;28;19914;-78
2022/07/16 09:33:11;;;;;;;;;;;20.40;51.80;;;;;;5008393;28;19984;-77
2022/07/16 09:35:37;;;;;;;;;;;20.70;50.60;;;;;;5001158;28;19921;-78
2022/07/16 09:38:04;;;;;;;;;;;20.60;50.70;;;;;;5005014;28;19918;-77
2022/07/16 09:40:32;;;;;;;;;;;20.70;49.50;;;;;;5000439;28;19972;-78
2022/07/16 09:42:58;;;;;;;;;;;20.60;47.50;;;;;;5003002;28;19917;-79
2022/07/16 09:45:25;;;;;;;;;;;20.50;48.50;;;;;;5009296;28;19914;-80
2022/07/16 09:47:50;;;;;;;;;;;20.50;49.40;;;;;;5016205;28;20449;-80
2022/07/16 09:50:16;;;;;;;;;;;20.80;49.20;;;;;;5014504;28;19952;-81
2022/07/16 09:52:42;;;;;;;;;;;20.90;48.60;;;;;;5012558;28;19909;-80
2022/07/16 09:55:08;;;;;;;;;;;21.00;48.60;;;;;;5014681;28;19925;-80
2022/07/16 09:57:33;;;;;;;;;;;21.10;48.00;;;;;;5014037;28;19914;-79
2022/07/16 09:59:59;;;;;;;;;;;21.30;49.10;;;;;;5014404;28;19909;-81
2022/07/16 10:02:25;;;;;;;;;;;21.30;48.00;;;;;;5013181;28;19952;-79
2022/07/16 10:04:51;;;;;;;;;;;21.10;47.60;;;;;;5015510;28;19909;-81
2022/07/16 10:07:17;;;;;;;;;;;20.90;48.70;;;;;;5015071;28;20000;-81
2022/07/16 10:09:42;;;;;;;;;;;20.80;48.60;;;;;;5013525;28;19910;-80
2022/07/16 10:12:09;;;;;;;;;;;20.90;48.30;;;;;;5016106;28;20416;-81
2022/07/16 10:14:35;;;;;;;;;;;20.90;48.70;;;;;;5007720;28;19926;-80
2022/07/16 10:17:09;;;;;;;;;;;20.90;48.20;;;;;;5023376;28;19929;-80
2022/07/16 10:19:36;;;;;;;;;;;20.80;48.90;;;;;;5014528;28;19928;-80
2022/07/16 10:22:17;;;;;;;;;;;20.80;48.90;;;;;;5031809;28;20135;-81
2022/07/16 10:24:47;;;;;;;;;;;20.70;49.40;;;;;;5013278;28;19910;-80
2022/07/16 10:27:16;;;;;;;;;;;20.80;49.10;;;;;;5014990;28;19910;-79
2022/07/16 10:29:41;;;;;;;;;;;20.80;48.50;;;;;;5015497;28;19941;-80
2022/07/16 10:34:51;;;;;;;;;;;21.10;47.40;;;;;;5013171;28;19948;-80
2022/07/16 10:37:27;;;;;;;;;;;21.30;48.10;;;;;;5013940;28;20358;-81
2022/07/16 10:40:00;;;;;;;;;;;21.30;47.30;;;;;;5017031;28;20004;-80
2022/07/16 10:42:27;;;;;;;;;;;21.30;47.60;;;;;;5016787;28;19917;-80
2022/07/16 10:44:52;;;;;;;;;;;21.30;46.50;;;;;;5011879;28;19921;-80
2022/07/16 10:47:18;;;;;;;;;;;21.40;46.20;;;;;;5001411;28;19917;-80
2022/07/16 10:49:44;;;;;;;;;;;21.50;44.90;;;;;;5006464;28;20008;-79
2022/07/16 10:52:14;;;;;;;;;;;21.60;45.60;;;;;;5012948;28;19913;-79
2022/07/16 10:54:50;;;;;;;;;;;21.90;44.60;;;;;;5013180;28;22334;-81
2022/07/16 10:57:16;;;;;;;;;;;22.10;45.00;;;;;;5015726;28;20370;-80
2022/07/16 10:59:43;;;;;;;;;;;22.10;44.80;;;;;;5013654;28;19917;-80
2022/07/16 11:02:10;;;;;;;;;;;22.00;45.30;;;;;;5016045;28;19913;-79
2022/07/16 11:04:37;;;;;;;;;;;21.80;46.40;;;;;;5001052;28;19921;-80
2022/07/16 11:07:03;;;;;;;;;;;22.00;45.20;;;;;;4995891;28;19914;-80
2022/07/16 11:09:33;;;;;;;;;;;21.80;46.30;;;;;;5005599;28;19910;-79
2022/07/16 11:12:06;;;;;;;;;;;21.70;45.80;;;;;;5017592;28;19910;-80
2022/07/16 11:14:31;;;;;;;;;;;21.60;45.70;;;;;;5022771;28;20628;-81
2022/07/16 11:16:57;;;;;;;;;;;21.40;45.90;;;;;;5017865;28;19910;-81
2022/07/16 11:19:23;;;;;;;;;;;21.20;46.20;;;;;;5010529;28;20000;-80
2022/07/16 11:21:53;;;;;;;;;;;21.30;45.50;;;;;;5017100;28;19920;-79
2022/07/16 11:24:18;;;;;;;;;;;21.30;45.80;;;;;;5016405;28;19944;-79
2022/07/16 11:26:44;;;;;;;;;;;21.10;45.00;;;;;;5015610;28;20394;-78
2022/07/16 11:29:09;;;;;;;;;;;21.40;46.20;;;;;;5015774;28;19909;-81
2022/07/16 11:31:36;;;;;;;;;;;21.50;44.90;;;;;;5012374;28;19913;-80
2022/07/16 11:34:03;;;;;;;;;;;21.60;45.70;;;;;;5015728;28;19913;-79
2022/07/16 11:36:36;;;;;;;;;;;21.50;45.10;;;;;;5009287;28;20043;-79
2022/07/16 11:39:05;;;;;;;;;;;21.30;45.80;;;;;;4991645;28;19922;-80
2022/07/16 11:41:31;;;;;;;;;;;21.00;46.10;;;;;;4993067;28;20311;-79
2022/07/16 11:43:57;;;;;;;;;;;21.00;46.00;;;;;;5004552;28;20003;-79
2022/07/16 11:46:24;;;;;;;;;;;21.10;46.30;;;;;;5012821;28;19909;-78
2022/07/16 11:48:49;;;;;;;;;;;21.50;45.30;;;;;;5007291;28;20023;-80
2022/07/16 11:51:15;;;;;;;;;;;21.60;44.90;;;;;;5009085;28;19972;-80
2022/07/16 11:53:40;;;;;;;;;;;21.50;44.70;;;;;;5016774;28;19952;-80
2022/07/16 11:56:06;;;;;;;;;;;21.20;45.70;;;;;;5016334;28;19924;-79
2022/07/16 11:58:32;;;;;;;;;;;21.10;45.70;;;;;;5017228;28;19944;-81
2022/07/16 12:00:58;;;;;;;;;;;21.10;45.50;;;;;;5014786;28;20346;-80
2022/07/16 12:03:23;;;;;;;;;;;21.10;45.40;;;;;;5012528;28;19964;-82
2022/07/16 12:05:58;;;;;;;;;;;21.10;44.00;;;;;;5020665;28;19921;-83
2022/07/16 12:08:24;;;;;;;;;;;21.00;44.40;;;;;;5008252;28;19924;-81
2022/07/16 12:11:05;;;;;;;;;;;21.00;44.50;;;;;;5023258;28;20247;-80
2022/07/16 12:13:31;;;;;;;;;;;21.10;43.40;;;;;;5020763;28;19917;-80
2022/07/16 12:15:57;;;;;;;;;;;21.40;42.80;;;;;;5019417;28;20446;-80
2022/07/16 12:18:23;;;;;;;;;;;21.50;42.50;;;;;;5017023;28;20012;-82
2022/07/16 12:20:49;;;;;;;;;;;21.30;41.70;;;;;;5014874;28;20012;-80
2022/07/16 12:23:29;;;;;;;;;;;21.20;42.50;;;;;;5014916;28;19910;-81
2022/07/16 12:26:00;;;;;;;;;;;21.30;43.20;;;;;;5028979;28;19992;-81
2022/07/16 12:28:25;;;;;;;;;;;21.30;43.10;;;;;;5005391;28;19914;-82
2022/07/16 12:30:51;;;;;;;;;;;21.30;43.10;;;;;;5003406;28;19925;-81
2022/07/16 12:33:22;;;;;;;;;;;21.30;42.30;;;;;;5009992;28;20386;-81
2022/07/16 12:35:57;;;;;;;;;;;21.30;42.90;;;;;;5023423;28;20505;-79
2022/07/16 12:38:39;;;;;;;;;;;21.40;42.00;;;;;;5006029;28;19917;-81
2022/07/16 12:41:12;;;;;;;;;;;21.40;40.40;;;;;;5006866;28;19924;-79
2022/07/16 12:43:39;;;;;;;;;;;21.40;42.00;;;;;;5029052;28;19956;-78
2022/07/16 12:46:06;;;;;;;;;;;21.60;42.50;;;;;;5003645;28;19917;-78
2022/07/16 12:48:39;;;;;;;;;;;21.70;42.60;;;;;;5001760;28;19917;-79
2022/07/16 12:51:04;;;;;;;;;;;22.00;42.00;;;;;;5009368;28;19926;-80
2022/07/16 12:53:30;;;;;;;;;;;21.80;42.80;;;;;;5001264;28;19925;-80
2022/07/16 12:58:49;;;;;;;;;;;21.70;40.50;;;;;;5007582;28;19964;-80
2022/07/16 13:01:18;;;;;;;;;;;21.70;41.80;;;;;;5007400;28;19914;-78
2022/07/16 13:03:44;;;;;;;;;;;21.70;41.40;;;;;;4997699;28;19933;-80
2022/07/16 13:06:10;;;;;;;;;;;21.80;40.60;;;;;;4998744;28;19914;-80
2022/07/16 13:08:36;;;;;;;;;;;21.60;40.90;;;;;;5000450;28;19917;-79
2022/07/16 13:11:02;;;;;;;;;;;21.50;41.70;;;;;;4997691;28;19991;-79
2022/07/16 13:13:28;;;;;;;;;;;21.40;42.50;;;;;;4991570;28;20012;-80
2022/07/16 13:15:53;;;;;;;;;;;21.70;41.90;;;;;;5026806;28;19952;-78
2022/07/16 13:18:19;;;;;;;;;;;21.60;42.30;;;;;;4999432;28;19925;-79
2022/07/16 13:20:44;;;;;;;;;;;21.60;43.00;;;;;;5005227;28;19914;-79
2022/07/16 13:23:10;;;;;;;;;;;21.80;42.60;;;;;;5031918;28;20697;-78
2022/07/16 13:25:35;;;;;;;;;;;21.90;42.60;;;;;;4997717;28;19945;-78
2022/07/16 13:28:02;;;;;;;;;;;22.00;43.10;;;;;;4999147;28;20049;-79
2022/07/16 13:30:27;;;;;;;;;;;21.80;42.30;;;;;;4995304;28;19965;-77
2022/07/16 13:32:53;;;;;;;;;;;21.90;42.80;;;;;;4993658;28;19913;-78
2022/07/16 13:35:18;;;;;;;;;;;22.00;42.50;;;;;;4999535;28;19914;-77
2022/07/16 13:37:44;;;;;;;;;;;22.00;42.40;;;;;;4995927;28;19918;-78
2022/07/16 13:40:09;;;;;;;;;;;22.00;42.20;;;;;;5020359;28;20067;-78
2022/07/16 13:42:35;;;;;;;;;;;22.00;41.80;;;;;;4999307;28;19924;-78
2022/07/16 13:45:00;;;;;;;;;;;22.10;42.60;;;;;;4996781;28;19913;-80
2022/07/16 13:47:26;;;;;;;;;;;22.10;41.70;;;;;;4994554;28;19918;-78
2022/07/16 13:49:51;;;;;;;;;;;22.10;42.40;;;;;;4999606;28;19923;-78
2022/07/16 13:52:17;;;;;;;;;;;22.30;41.10;;;;;;5003525;28;19922;-78
2022/07/16 13:54:43;;;;;;;;;;;22.50;41.30;;;;;;4997766;28;19913;-79
2022/07/16 13:59:52;;;;;;;;;;;22.60;40.90;;;;;;5007583;28;19920;-81
2022/07/16 14:02:18;;;;;;;;;;;22.40;41.10;;;;;;5003183;28;19913;-77
2022/07/16 14:04:43;;;;;;;;;;;22.40;41.00;;;;;;5003539;28;19918;-77
2022/07/16 14:07:09;;;;;;;;;;;22.30;40.70;;;;;;4996969;28;20333;-78
2022/07/16 14:09:34;;;;;;;;;;;22.30;41.50;;;;;;5002379;28;19956;-78
2022/07/16 14:12:00;;;;;;;;;;;22.30;41.90;;;;;;5005028;28;20008;-78
2022/07/16 14:14:25;;;;;;;;;;;22.30;41.60;;;;;;4999688;28;20020;-79
2022/07/16 14:16:51;;;;;;;;;;;22.40;41.30;;;;;;5004514;28;20396;-78
2022/07/16 14:19:16;;;;;;;;;;;22.50;41.10;;;;;;5012980;28;19921;-78
2022/07/16 14:21:44;;;;;;;;;;;22.50;41.40;;;;;;5012082;28;19952;-80
2022/07/16 14:24:10;;;;;;;;;;;22.30;40.60;;;;;;5011197;28;19948;-78
2022/07/16 14:26:35;;;;;;;;;;;22.20;41.00;;;;;;5005529;28;19993;-78